Time;durP1;ratioP1;P1;durP2;ratioP2;P2;SDS_P1;SDS_P2;PMS_P1;PMS_P2;Temp;Humidity;BMP_temperature;BMP_pressure;BME280_temperature;BME280_humidity;BME280_pressure;Samples;Min_cycle;Max_cycle;Signal;HPM_P1;HPM_P2
2023/08/23 00:01:47;;;;;;;7.10;6.47;;;;;;;19.87;97.94;97805.25;6152221;28;20597;-94
2023/08/23 00:04:50;;;;;;;10.90;6.97;;;;;;;19.45;98.42;97747.56;6151649;28;20221;-94
2023/08/23 00:07:53;;;;;;;7.73;6.80;;;;;;;19.65;98.92;97781.56;6131813;28;20230;-93
2023/08/23 00:10:55;;;;;;;8.50;7.17;;;;;;;20.12;99.85;97861.56;6154507;28;20670;-94
2023/08/23 00:13:58;;;;;;;11.20;7.50;;;;;;;19.70;100.00;97806.59;6137302;28;20218;-94
2023/08/23 00:17:03;;;;;;;11.83;6.93;;;;;;;19.64;99.97;97791.56;6141405;28;20670;-94
2023/08/23 00:20:06;;;;;;;7.50;6.80;;;;;;;19.50;100.00;97771.81;6150669;28;20240;-94
2023/08/23 00:23:08;;;;;;;10.07;7.30;;;;;;;19.73;100.00;97810.63;6132317;28;20213;-93
2023/08/23 00:26:11;;;;;;;8.93;7.23;;;;;;;19.76;99.95;97818.16;6143644;28;20213;-94
2023/08/23 00:29:13;;;;;;;8.57;6.83;;;;;;;19.80;100.00;97819.97;6129237;28;20225;-93
2023/08/23 00:32:19;;;;;;;9.77;7.30;;;;;;;19.67;100.00;97807.22;6131959;28;20218;-94
2023/08/23 00:35:23;;;;;;;7.80;7.03;;;;;;;19.62;100.00;97796.50;6121954;29;20218;-94
2023/08/23 00:38:26;;;;;;;7.27;6.57;;;;;;;19.70;100.00;97806.59;6143564;28;20213;-94
2023/08/23 00:41:28;;;;;;;8.17;7.37;;;;;;;19.63;100.00;97786.47;6155328;28;20213;-93
2023/08/23 00:44:30;;;;;;;11.13;7.83;;;;;;;19.92;100.00;97843.00;6146917;28;20309;-94
2023/08/23 00:47:33;;;;;;;8.37;7.30;;;;;;;20.07;100.00;97865.16;6139753;28;20219;-93
2023/08/23 00:50:39;;;;;;;9.67;7.50;;;;;;;20.01;100.00;97863.66;6139791;28;20205;-93
2023/08/23 00:53:43;;;;;;;9.03;7.37;;;;;;;19.51;100.00;97781.53;6149508;28;20210;-93
2023/08/23 00:56:47;;;;;;;9.47;7.10;;;;;;;19.60;100.00;97795.97;6143862;28;20209;-94
2023/08/23 00:59:49;;;;;;;7.97;7.17;;;;;;;19.67;100.00;97806.41;6135001;28;20221;-94
2023/08/23 01:02:52;;;;;;;8.80;7.90;;;;;;;20.23;100.00;97889.22;6145940;28;20217;-94
2023/08/23 01:06:28;;;;;;;9.50;7.90;;;;;;;20.23;100.00;97889.22;6152416;28;20221;-94
2023/08/23 01:09:58;;;;;;;8.10;7.40;;;;;;;19.84;100.00;97831.75;6136457;28;20245;-94
2023/08/23 01:13:38;;;;;;;8.17;7.20;;;;;;;19.88;100.00;97841.97;6161687;28;20220;-94
2023/08/23 01:16:45;;;;;;;8.30;7.43;;;;;;;19.70;100.00;97824.72;6038815;29;20229;-95
2023/08/23 01:19:50;;;;;;;7.97;7.17;;;;;;;19.63;100.00;97792.69;6037893;29;20248;-94
2023/08/23 01:23:13;;;;;;;9.57;7.63;;;;;;;19.87;100.00;97835.78;6052893;29;20237;-94
2023/08/23 01:26:17;;;;;;;14.40;8.00;;;;;;;19.94;100.00;97840.78;6025656;29;20207;-94
2023/08/23 01:29:20;;;;;;;8.87;7.97;;;;;;;19.66;100.00;97805.63;6021950;29;20239;-94
2023/08/23 01:32:28;;;;;;;8.87;7.57;;;;;;;20.21;100.00;97894.91;6023666;29;20228;-94
2023/08/23 01:35:38;;;;;;;10.57;7.50;;;;;;;20.20;100.00;97903.34;6018976;29;20230;-95
2023/08/23 01:38:43;;;;;;;11.20;7.67;;;;;;;19.77;100.00;97849.47;6049391;29;20682;-94
2023/08/23 01:41:47;;;;;;;7.97;7.17;;;;;;;19.18;100.00;97756.44;6036431;29;20226;-94
2023/08/23 01:44:50;;;;;;;8.93;8.13;;;;;;;20.15;100.00;97893.41;6039412;29;20252;-94
2023/08/23 01:47:55;;;;;;;15.53;7.83;;;;;;;19.54;100.00;97802.53;6048539;29;20225;-94
2023/08/23 01:50:57;;;;;;;10.43;7.80;;;;;;;19.27;100.00;97768.16;6072686;28;20209;-94
2023/08/23 01:54:00;;;;;;;13.37;7.87;;;;;;;19.18;100.00;97764.53;6113260;28;20572;-94
2023/08/23 01:57:03;;;;;;;10.17;7.50;;;;;;;19.65;100.00;97831.00;6119331;28;20218;-93
2023/08/23 02:00:07;;;;;;;8.57;7.17;;;;;;;19.75;100.00;97841.69;6130826;28;20218;-93
2023/08/23 02:03:15;;;;;;;9.00;8.03;;;;;;;19.44;100.00;97800.00;6127112;29;20227;-94
2023/08/23 02:06:17;;;;;;;8.33;7.27;;;;;;;19.80;100.00;97854.28;6123229;28;20229;-94
2023/08/23 02:09:20;;;;;;;138.20;15.67;;;;;;;19.66;100.00;97843.44;6132008;28;20230;-93
2023/08/23 02:12:22;;;;;;;10.00;8.30;;;;;;;19.77;100.00;97850.28;6106240;28;20445;-93
2023/08/23 02:15:25;;;;;;;8.90;7.60;;;;;;;19.72;100.00;97844.97;6105842;28;20278;-94
2023/08/23 02:18:28;;;;;;;8.70;7.80;;;;;;;19.40;100.00;97785.50;6123180;28;20319;-93
2023/08/23 02:21:31;;;;;;;8.77;7.63;;;;;;;20.09;100.00;97879.16;6112520;28;20241;-94
2023/08/23 02:24:33;;;;;;;8.80;7.60;;;;;;;19.11;100.00;97724.38;6111865;28;20211;-93
2023/08/23 02:27:36;;;;;;;9.43;7.50;;;;;;;19.84;100.00;97836.38;6129236;28;20209;-93
2023/08/23 02:30:40;;;;;;;8.90;7.57;;;;;;;19.80;100.00;97830.78;6130623;28;20234;-92
2023/08/23 02:33:42;;;;;;;10.17;7.83;;;;;;;19.88;100.00;97841.97;6120458;28;20206;-94
2023/08/23 02:36:46;;;;;;;8.40;7.60;;;;;;;19.34;100.00;97760.47;6115706;28;20214;-94
2023/08/23 02:39:48;;;;;;;8.83;7.97;;;;;;;19.97;100.00;97854.53;6111097;28;20827;-93
2023/08/23 02:42:55;;;;;;;9.00;7.83;;;;;;;20.07;100.00;97862.44;6114105;28;20209;-93
2023/08/23 02:45:59;;;;;;;9.13;7.70;;;;;;;19.48;100.00;97777.50;6127446;28;20210;-94
2023/08/23 02:49:01;;;;;;;8.63;7.83;;;;;;;19.48;100.00;97784.81;6114658;28;20710;-94
2023/08/23 02:52:04;;;;;;;9.97;7.83;;;;;;;19.10;100.00;97717.38;6116411;28;20223;-93
2023/08/23 02:55:07;;;;;;;8.90;7.60;;;;;;;19.41;100.00;97777.09;6130203;28;20214;-93
2023/08/23 02:58:12;;;;;;;9.67;7.60;;;;;;;19.25;100.00;97743.31;6127302;28;20230;-94
2023/08/23 03:01:16;;;;;;;8.53;7.60;;;;;;;19.93;100.00;97856.22;6118149;28;20224;-94
2023/08/23 03:04:18;;;;;;;8.10;7.33;;;;;;;19.18;100.00;97735.63;6133897;28;20206;-94
2023/08/23 03:07:23;;;;;;;8.17;7.37;;;;;;;19.07;100.00;97735.00;6117053;28;20217;-94
2023/08/23 03:10:26;;;;;;;7.63;6.93;;;;;;;19.11;100.00;97718.97;6112864;29;20234;-93
2023/08/23 03:13:33;;;;;;;8.80;7.67;;;;;;;19.97;100.00;97854.53;6112558;28;20210;-93
2023/08/23 03:16:35;;;;;;;8.77;7.60;;;;;;;19.06;100.00;97709.09;6103100;28;20210;-93
2023/08/23 03:19:40;;;;;;;8.20;7.33;;;;;;;19.22;100.00;97739.34;6121990;28;20233;-94
2023/08/23 03:22:42;;;;;;;8.63;7.83;;;;;;;19.11;100.00;97732.47;6129952;28;20221;-94
2023/08/23 03:25:48;;;;;;;10.20;8.43;;;;;;;19.10;100.00;97711.19;6142344;28;20642;-94
2023/08/23 03:28:53;;;;;;;8.07;7.27;;;;;;;19.33;100.00;97748.06;6151190;28;20245;-95
2023/08/23 03:31:55;;;;;;;8.30;7.53;;;;;;;19.31;100.00;97752.97;6132799;28;20282;-94
2023/08/23 03:34:58;;;;;;;8.63;7.70;;;;;;;19.14;100.00;97745.41;6157641;28;20649;-94
2023/08/23 03:38:00;;;;;;;8.43;7.63;;;;;;;19.53;100.00;97806.34;6135401;28;20216;-93
2023/08/23 03:41:04;;;;;;;8.30;7.33;;;;;;;19.82;100.00;97847.47;6157787;28;20209;-94
2023/08/23 03:44:06;;;;;;;11.17;7.53;;;;;;;19.28;100.00;97762.47;6136938;28;20209;-94
2023/08/23 03:47:09;;;;;;;7.87;7.07;;;;;;;19.61;100.00;97816.50;6142018;28;20209;-94
2023/08/23 03:50:12;;;;;;;8.10;7.37;;;;;;;19.12;100.00;97747.59;6128892;28;20241;-93
2023/08/23 03:53:14;;;;;;;7.67;6.97;;;;;;;19.31;100.00;97767.28;6139684;28;20577;-94
2023/08/23 03:56:17;;;;;;;7.67;6.97;;;;;;;19.77;100.00;97841.38;6142724;28;20224;-93
2023/08/23 03:59:22;;;;;;;7.43;6.70;;;;;;;19.66;100.00;97837.25;6138677;28;20706;-93
2023/08/23 04:02:24;;;;;;;7.40;6.80;;;;;;;19.74;100.00;97853.56;6153949;28;20218;-93
2023/08/23 04:05:30;;;;;;;7.87;7.17;;;;;;;19.54;100.00;97830.34;6155751;28;20249;-94
2023/08/23 04:08:32;;;;;;;8.00;7.20;;;;;;;19.16;100.00;97766.69;6137327;28;20237;-94
2023/08/23 04:11:34;;;;;;;7.30;6.60;;;;;;;19.70;100.00;97857.16;6153340;28;20632;-93
2023/08/23 04:14:37;;;;;;;6.73;6.10;;;;;;;19.45;100.00;97821.31;6153878;28;20209;-94
2023/08/23 04:17:40;;;;;;;8.20;7.13;;;;;;;19.64;100.00;97853.75;6141802;28;20217;-93
2023/08/23 04:20:42;;;;;;;9.27;7.57;;;;;;;19.44;100.00;97824.31;6152215;28;20505;-93
2023/08/23 04:23:44;;;;;;;8.27;7.47;;;;;;;19.18;100.00;97786.13;6159394;28;20220;-92
2023/08/23 04:26:47;;;;;;;9.00;8.10;;;;;;;19.42;100.00;97827.34;6130040;28;20245;-93
2023/08/23 04:29:53;;;;;;;7.87;7.10;;;;;;;19.07;100.00;97783.59;6139612;28;20266;-93
2023/08/23 04:32:57;;;;;;;8.87;7.90;;;;;;;19.24;100.00;97809.25;6150089;28;20201;-93
2023/08/23 04:36:04;;;;;;;8.47;7.70;;;;;;;19.28;100.00;97816.47;6149851;28;20186;-93
2023/08/23 04:39:06;;;;;;;8.17;7.40;;;;;;;19.11;100.00;97796.50;6165747;28;20233;-93
2023/08/23 04:42:12;;;;;;;10.67;8.17;;;;;;;19.19;100.00;97823.63;6150372;28;20210;-93
2023/08/23 04:45:14;;;;;;;8.23;7.37;;;;;;;19.13;100.00;97805.91;6171600;28;20224;-93
2023/08/23 04:48:19;;;;;;;8.90;8.00;;;;;;;19.15;100.00;97797.50;6170297;28;20194;-93
2023/08/23 04:51:23;;;;;;;8.40;7.63;;;;;;;19.18;100.00;97810.44;6171981;28;20198;-93
2023/08/23 04:54:29;;;;;;;8.03;7.40;;;;;;;19.17;100.00;97790.75;6168250;28;20209;-93
2023/08/23 04:57:32;;;;;;;8.87;7.80;;;;;;;19.06;100.00;97776.59;6184077;28;20197;-93
2023/08/23 05:00:34;;;;;;;8.17;7.37;;;;;;;19.31;100.00;97810.50;6173460;28;20269;-93
2023/08/23 05:03:36;;;;;;;10.67;8.70;;;;;;;19.30;100.00;97808.06;6188023;28;20281;-93
2023/08/23 05:06:40;;;;;;;9.40;8.47;;;;;;;19.26;100.00;97810.59;6197432;28;20193;-93
2023/08/23 05:09:42;;;;;;;9.80;8.57;;;;;;;19.20;100.00;97790.13;6173288;28;20248;-93
2023/08/23 05:12:46;;;;;;;8.93;8.13;;;;;;;19.27;100.00;97806.78;6172819;28;20197;-93
2023/08/23 05:15:55;;;;;;;9.50;8.60;;;;;;;19.29;100.00;97807.28;6189701;28;20198;-93
2023/08/23 05:18:58;;;;;;;8.83;8.03;;;;;;;19.82;100.00;97887.25;6153407;28;20225;-93
2023/08/23 05:22:01;;;;;;;9.47;8.63;;;;;;;19.19;100.00;97780.44;6142504;28;20272;-93
2023/08/23 05:25:04;;;;;;;10.97;8.97;;;;;;;19.37;100.00;97792.31;6143286;28;20224;-93
2023/08/23 05:28:06;;;;;;;10.00;9.00;;;;;;;19.80;100.00;97841.59;6141647;29;20211;-94
2023/08/23 05:31:08;;;;;;;9.27;8.43;;;;;;;20.16;100.00;97875.28;6187006;28;20225;-93
2023/08/23 05:34:14;;;;;;;10.57;9.57;;;;;;;19.89;100.00;97830.88;6149045;28;20292;-93
2023/08/23 05:37:19;;;;;;;10.23;9.10;;;;;;;20.15;100.00;97798.75;6161630;28;20245;-93
2023/08/23 05:40:22;;;;;;;10.13;9.03;;;;;;;20.13;100.00;97757.66;6155753;28;20244;-93
2023/08/23 05:43:24;;;;;;;9.47;8.47;;;;;;;21.25;100.00;97898.75;6145649;28;20217;-92
2023/08/23 05:46:27;;;;;;;8.87;8.00;;;;;;;21.30;100.00;97904.09;6165092;28;20214;-93
2023/08/23 05:49:37;;;;;;;9.53;8.60;;;;;;;21.36;100.00;97910.19;6245199;23;20567;-94
2023/08/23 05:52:40;;;;;;;9.53;8.63;;;;;;;21.21;99.14;97867.97;6202320;28;20212;-94
2023/08/23 05:55:45;;;;;;;13.37;11.90;;;;;;;20.18;99.20;97687.22;6220910;28;20287;-94
2023/08/23 06:04:09;;;;;;;10.40;9.27;;;;;;;22.61;89.73;97943.69;6196291;23;20238;-58
2023/08/23 06:07:43;;;;;;;11.73;9.70;;;;;;;23.03;86.87;97957.78;6192300;28;20621;-58
2023/08/23 06:10:49;;;;;;;10.02;9.02;;;;;;;23.41;83.23;97972.41;6208614;28;20241;-56
2023/08/23 06:13:55;;;;;;;12.15;8.95;;;;;;;23.56;81.57;97994.81;6190323;28;20587;-57
2023/08/23 06:16:59;;;;;;;10.73;8.52;;;;;;;23.53;82.53;98028.84;6185592;28;20232;-57
2023/08/23 06:20:04;;;;;;;9.38;8.45;;;;;;;23.67;80.30;98034.19;6180001;28;20593;-56
2023/08/23 06:23:06;;;;;;;11.50;8.38;;;;;;;23.91;77.48;98009.25;6186312;28;20235;-56
2023/08/23 06:26:09;;;;;;;9.40;8.23;;;;;;;23.82;77.74;97994.84;6181047;28;20236;-56
2023/08/23 06:29:12;;;;;;;11.18;8.35;;;;;;;23.89;75.61;97984.25;6182017;28;20245;-55
2023/08/23 06:32:14;;;;;;;10.30;7.63;;;;;;;23.68;77.20;97984.09;6178260;28;20336;-55
2023/08/23 06:35:19;;;;;;;10.27;7.60;;;;;;;23.52;78.04;97961.19;6183391;28;20324;-56
2023/08/23 06:38:21;;;;;;;13.07;8.32;;;;;;;23.39;80.09;97952.06;6178945;28;20228;-56
2023/08/23 06:41:23;;;;;;;10.52;7.55;;;;;;;23.18;81.53;97960.84;6183560;28;20217;-56
2023/08/23 06:44:25;;;;;;;10.10;8.40;;;;;;;22.91;84.72;97951.03;6181131;28;20323;-57
2023/08/23 06:47:27;;;;;;;9.00;8.20;;;;;;;22.70;87.54;97977.13;6178758;28;20348;-57
2023/08/23 06:50:30;;;;;;;9.00;7.68;;;;;;;22.51;90.58;97980.09;6181882;28;20328;-56
2023/08/23 06:53:33;;;;;;;10.90;8.73;;;;;;;22.26;93.41;97973.38;6181850;28;20264;-57
2023/08/23 06:56:37;;;;;;;9.07;8.18;;;;;;;22.09;95.50;97981.41;6182011;28;20217;-56
2023/08/23 06:59:39;;;;;;;10.32;7.57;;;;;;;21.92;97.76;97978.56;6179580;28;20255;-56
2023/08/23 07:02:42;;;;;;;7.37;6.70;;;;;;;21.77;97.87;97988.69;6181523;28;20257;-57
2023/08/23 07:05:44;;;;;;;7.80;7.00;;;;;;;21.65;97.73;98004.69;6183227;28;20228;-56
2023/08/23 07:08:47;;;;;;;7.53;6.28;;;;;;;21.52;98.82;98005.53;6180976;28;20213;-57
2023/08/23 07:11:49;;;;;;;6.40;5.90;;;;;;;21.39;99.69;98007.16;6182328;28;20252;-55
2023/08/23 07:14:51;;;;;;;6.73;6.13;;;;;;;21.29;100.00;98002.72;6182151;28;20300;-56
2023/08/23 07:17:54;;;;;;;9.57;7.37;;;;;;;21.21;100.00;98008.06;6182079;28;20715;-57
2023/08/23 07:20:57;;;;;;;9.13;7.60;;;;;;;21.19;100.00;98011.09;6178223;28;20372;-57
2023/08/23 07:23:59;;;;;;;7.37;6.77;;;;;;;21.17;100.00;98015.19;6181413;28;20453;-57
2023/08/23 07:27:02;;;;;;;11.07;9.23;;;;;;;21.09;100.00;98022.94;6180536;28;20559;-57
2023/08/23 07:30:06;;;;;;;14.07;12.57;;;;;;;21.10;100.00;98023.72;6180771;28;20347;-56
2023/08/23 07:33:09;;;;;;;13.57;12.27;;;;;;;20.96;100.00;98014.78;6179537;28;20231;-57
2023/08/23 07:36:14;;;;;;;14.97;13.50;;;;;;;21.02;100.00;98030.63;6182106;28;20220;-56
2023/08/23 07:39:17;;;;;;;14.47;12.97;;;;;;;20.97;100.00;98021.81;6188228;28;20237;-57
2023/08/23 07:42:21;;;;;;;10.40;9.30;;;;;;;20.96;100.00;98009.38;6183537;28;20232;-57
2023/08/23 07:45:23;;;;;;;9.93;8.60;;;;;;;20.98;100.00;98012.56;6180637;28;20224;-58
2023/08/23 07:48:27;;;;;;;10.30;9.30;;;;;;;20.96;100.00;98009.38;6180195;28;20225;-56
2023/08/23 07:51:29;;;;;;;10.80;9.73;;;;;;;20.96;100.00;98009.38;6181234;28;20372;-56
2023/08/23 07:54:32;;;;;;;11.13;10.03;;;;;;;20.99;100.00;98011.50;6179239;28;20217;-56
2023/08/23 07:57:35;;;;;;;14.47;12.97;;;;;;;21.03;100.00;98007.06;6183329;28;20283;-56
2023/08/23 08:01:00;;;;;;;10.93;9.83;;;;;;;21.08;100.00;98010.50;6181780;28;20700;-52
2023/08/23 08:04:06;;;;;;;10.00;9.03;;;;;;;21.09;100.00;98014.81;6082091;29;20823;-50
2023/08/23 08:07:21;;;;;;;9.43;8.47;;;;;;;21.07;100.00;98006.16;6083078;29;20226;-47
2023/08/23 08:10:43;;;;;;;9.73;8.83;;;;;;;21.15;100.00;98012.78;6082945;29;20671;-49
2023/08/23 08:13:46;;;;;;;9.83;8.83;;;;;;;21.16;100.00;98008.97;6083637;29;20335;-47
2023/08/23 08:16:50;;;;;;;9.53;8.63;;;;;;;21.20;100.00;98017.31;6084861;29;20247;-50
2023/08/23 08:19:52;;;;;;;10.87;9.83;;;;;;;21.23;100.00;98011.25;6086723;29;20208;-49
2023/08/23 08:22:55;;;;;;;10.20;8.50;;;;;;;21.26;100.00;98021.50;6086135;29;20227;-51
2023/08/23 08:25:58;;;;;;;10.13;9.17;;;;;;;21.31;100.00;98019.50;6082910;29;20223;-48
2023/08/23 08:29:00;;;;;;;9.73;8.73;;;;;;;21.38;100.00;98019.13;6083059;29;20629;-47
2023/08/23 08:32:02;;;;;;;9.67;8.20;;;;;;;21.52;100.00;98029.91;6082675;29;20239;-50
2023/08/23 08:35:05;;;;;;;9.50;8.50;;;;;;;21.56;100.00;98025.50;6081848;29;20299;-50
2023/08/23 08:38:08;;;;;;;10.00;8.87;;;;;;;21.69;100.00;98027.38;6081959;29;20255;-50
2023/08/23 08:41:12;;;;;;;10.37;8.87;;;;;;;21.76;100.00;98038.59;6140881;28;20221;-47
2023/08/23 08:44:14;;;;;;;9.30;7.87;;;;;;;21.87;100.00;98034.56;6180369;28;20217;-51
2023/08/23 08:47:22;;;;;;;8.37;7.33;;;;;;;21.95;99.85;98024.88;6182830;28;20213;-50
2023/08/23 08:50:32;;;;;;;7.93;7.20;;;;;;;22.09;100.00;98039.19;6170587;28;20233;-47
2023/08/23 08:53:36;;;;;;;8.13;7.07;;;;;;;22.14;99.60;98041.81;6207961;23;20249;-53
2023/08/23 08:56:39;;;;;;;8.10;7.10;;;;;;;22.22;99.11;98040.28;6181598;28;20229;-49
2023/08/23 08:59:42;;;;;;;7.13;6.47;;;;;;;22.33;98.19;98044.34;6170380;28;20399;-47
2023/08/23 09:02:45;;;;;;;7.37;6.37;;;;;;;22.40;96.15;98047.41;6179724;28;20225;-50
2023/08/23 09:05:48;;;;;;;9.20;6.90;;;;;;;22.49;95.75;98041.25;6170234;28;20217;-50
2023/08/23 09:08:51;;;;;;;6.70;6.00;;;;;;;22.61;94.71;98046.88;6181864;28;20233;-51
2023/08/23 09:11:53;;;;;;;7.07;6.32;;;;;;;22.71;94.15;98043.94;6180104;28;20237;-51
2023/08/23 09:14:56;;;;;;;7.45;6.38;;;;;;;22.74;92.48;98027.00;6181671;28;20243;-52
2023/08/23 09:17:59;;;;;;;7.03;5.55;;;;;;;22.88;92.28;98038.59;6181082;28;20229;-50
2023/08/23 09:21:01;;;;;;;7.07;5.65;;;;;;;22.97;90.81;98029.69;6180479;28;20697;-51
2023/08/23 09:24:04;;;;;;;5.82;4.38;;;;;;;23.06;87.96;98033.25;6176765;28;20720;-52
2023/08/23 09:27:08;;;;;;;5.97;4.75;;;;;;;23.21;86.30;98040.16;6179454;28;20241;-49
2023/08/23 09:30:21;;;;;;;8.73;4.50;;;;;;;23.34;86.05;98036.50;6180289;28;20241;-49
2023/08/23 09:33:24;;;;;;;6.70;4.82;;;;;;;23.59;81.12;98040.38;6182760;28;20229;-49
2023/08/23 09:36:31;;;;;;;6.63;5.43;;;;;;;23.59;81.46;98038.47;6183830;28;20225;-52
2023/08/23 09:39:33;;;;;;;5.47;4.07;;;;;;;23.68;80.87;98030.34;6180702;28;20233;-52
2023/08/23 09:42:36;;;;;;;5.00;4.40;;;;;;;23.83;80.24;98040.75;6183884;28;20224;-49
2023/08/23 09:45:39;;;;;;;5.03;4.35;;;;;;;23.91;79.88;98039.19;6185907;28;20232;-53
2023/08/23 09:48:41;;;;;;;4.90;4.38;;;;;;;24.16;76.17;98032.91;6182825;28;20210;-52
2023/08/23 09:51:46;;;;;;;4.47;4.05;;;;;;;24.20;75.95;98035.81;6187241;28;20245;-52
2023/08/23 09:54:51;;;;;;;4.97;4.28;;;;;;;24.21;75.93;98029.22;6179001;28;20249;-52
2023/08/23 09:58:14;;;;;;;6.82;4.72;;;;;;;24.37;74.35;98029.53;6184064;28;20224;-52
2023/08/23 10:01:17;;;;;;;5.90;4.47;;;;;;;24.54;74.38;98031.44;6183229;28;20368;-52
2023/08/23 10:04:24;;;;;;;4.97;4.50;;;;;;;24.59;73.30;98023.09;6183341;28;20577;-53
2023/08/23 10:07:27;;;;;;;5.10;4.22;;;;;;;24.62;73.28;98025.94;6179671;28;20234;-52
2023/08/23 10:10:30;;;;;;;4.72;4.22;;;;;;;24.66;74.84;98028.84;6183650;28;20276;-52
2023/08/23 10:13:35;;;;;;;4.35;3.95;;;;;;;24.85;72.20;98023.81;6183496;28;20283;-53
2023/08/23 10:16:38;;;;;;;5.30;4.00;;;;;;;24.93;70.99;98022.19;6178979;28;20229;-52
2023/08/23 10:19:41;;;;;;;4.57;4.18;;;;;;;24.95;71.65;98011.75;6183802;28;20684;-52
2023/08/23 10:22:43;;;;;;;5.03;3.95;;;;;;;24.97;71.23;98001.28;6183157;28;20225;-53
2023/08/23 10:25:47;;;;;;;5.03;4.07;;;;;;;25.08;69.80;98010.75;6181605;28;20279;-53
2023/08/23 10:28:53;;;;;;;4.55;4.15;;;;;;;25.05;70.71;98003.19;6182638;28;20225;-52
2023/08/23 10:31:55;;;;;;;6.43;3.92;;;;;;;25.16;68.73;98009.88;6182795;28;20248;-53
2023/08/23 10:34:57;;;;;;;5.35;4.15;;;;;;;25.10;71.04;97997.56;6182270;28;20605;-50
2023/08/23 10:38:02;;;;;;;4.60;3.75;;;;;;;25.15;69.05;98000.13;6181784;28;20292;-53
2023/08/23 10:41:04;;;;;;;4.63;3.67;;;;;;;25.32;67.03;97999.22;6182987;28;20260;-50
2023/08/23 10:44:16;;;;;;;5.97;4.28;;;;;;;25.38;67.82;97994.38;6181660;28;20693;-51
2023/08/23 10:47:19;;;;;;;4.20;3.80;;;;;;;25.44;67.75;97987.59;6179651;28;20267;-51
2023/08/23 10:50:22;;;;;;;6.13;3.80;;;;;;;25.49;69.83;97995.56;6165303;28;20226;-54
2023/08/23 10:53:27;;;;;;;4.18;3.65;;;;;;;25.73;66.53;97989.47;6182088;28;20603;-51
2023/08/23 10:56:30;;;;;;;4.68;4.10;;;;;;;25.85;67.22;97995.00;6182465;28;20307;-52
2023/08/23 10:59:33;;;;;;;4.10;3.70;;;;;;;26.05;63.35;97974.25;6181572;28;20248;-52
2023/08/23 11:02:35;;;;;;;3.85;3.47;;;;;;;26.06;65.07;97977.78;6181170;28;20270;-54
2023/08/23 11:05:38;;;;;;;6.53;3.80;;;;;;;26.15;63.40;97981.22;6182836;28;20259;-52
2023/08/23 11:08:44;;;;;;;4.55;3.42;;;;;;;26.29;63.92;97987.19;6189335;28;20213;-53
2023/08/23 11:11:47;;;;;;;3.42;3.22;;;;;;;26.34;63.92;97972.53;6182311;28;20312;-53
2023/08/23 11:14:49;;;;;;;4.60;3.60;;;;;;;26.45;64.46;97973.72;6179504;28;20224;-50
2023/08/23 11:17:52;;;;;;;3.97;3.45;;;;;;;26.65;60.99;97966.56;6181263;28;20217;-52
2023/08/23 11:20:54;;;;;;;3.65;3.30;;;;;;;26.69;62.11;97971.03;6174102;28;20209;-49
2023/08/23 11:23:57;;;;;;;3.75;3.45;;;;;;;26.63;62.74;97964.19;6181290;28;21657;-51
2023/08/23 11:26:59;;;;;;;5.35;3.55;;;;;;;26.66;64.53;97965.47;6180585;28;20311;-53
2023/08/23 11:30:02;;;;;;;4.10;3.72;;;;;;;26.67;63.19;97958.84;6179225;28;20233;-53
2023/08/23 11:33:06;;;;;;;4.57;4.03;;;;;;;26.74;63.08;97959.06;6182241;28;20229;-53
2023/08/23 11:36:09;;;;;;;4.45;3.75;;;;;;;26.78;63.25;97962.72;6180435;28;20213;-54
2023/08/23 11:39:13;;;;;;;5.95;3.47;;;;;;;26.89;60.91;97961.13;6177482;28;20225;-53
2023/08/23 11:42:16;;;;;;;4.40;3.80;;;;;;;26.87;60.11;97951.69;6181277;28;20484;-52
2023/08/23 11:45:18;;;;;;;4.30;3.50;;;;;;;26.82;59.80;97939.03;6181372;28;20224;-52
2023/08/23 11:48:26;;;;;;;4.15;3.05;;;;;;;27.18;60.43;97960.09;6181037;28;20209;-52
2023/08/23 11:51:38;;;;;;;4.35;3.50;;;;;;;27.29;57.76;97944.03;6180525;28;20637;-51
2023/08/23 11:54:40;;;;;;;3.70;3.38;;;;;;;27.37;57.53;97947.78;6180584;28;20303;-51
2023/08/23 11:57:43;;;;;;;4.53;3.90;;;;;;;27.33;57.80;97944.13;6178723;28;20271;-50
2023/08/23 12:00:47;;;;;;;4.60;3.47;;;;;;;27.44;57.31;97956.22;6188678;28;20232;-53
2023/08/23 12:03:50;;;;;;;4.72;4.00;;;;;;;27.43;56.94;97955.38;6178329;28;20683;-53
2023/08/23 12:06:52;;;;;;;4.43;4.03;;;;;;;27.33;58.54;97952.34;6172269;28;20216;-51
2023/08/23 12:09:55;;;;;;;4.50;4.10;;;;;;;27.27;59.05;97951.78;6180666;28;20217;-51
2023/08/23 12:12:57;;;;;;;4.82;4.40;;;;;;;27.34;59.20;97948.44;6180960;28;20299;-52
2023/08/23 12:16:00;;;;;;;7.05;4.50;;;;;;;27.53;57.85;97937.69;6180714;28;20697;-51
2023/08/23 12:19:02;;;;;;;4.82;4.43;;;;;;;27.62;57.88;97938.34;6181582;28;20699;-51
2023/08/23 12:22:18;;;;;;;4.60;4.20;;;;;;;27.58;59.34;97939.38;6180840;28;20728;-52
2023/08/23 12:25:20;;;;;;;4.93;4.47;;;;;;;27.62;58.62;97941.09;6180973;28;20770;-50
2023/08/23 12:28:22;;;;;;;6.03;4.20;;;;;;;27.85;57.01;97937.84;6179927;28;20291;-53
2023/08/23 12:31:25;;;;;;;5.03;4.53;;;;;;;27.99;56.03;97947.25;6181940;28;20624;-51
2023/08/23 12:34:27;;;;;;;4.78;4.38;;;;;;;27.74;57.11;97921.91;6182185;28;20209;-52
2023/08/23 12:37:29;;;;;;;5.20;4.07;;;;;;;27.77;57.88;97926.69;6180748;28;20213;-53
2023/08/23 12:40:32;;;;;;;6.05;4.68;;;;;;;27.84;58.24;97925.31;6180498;28;20213;-53
2023/08/23 12:43:34;;;;;;;4.47;4.07;;;;;;;27.89;57.26;97911.34;6174293;28;20308;-52
2023/08/23 12:46:36;;;;;;;7.22;4.70;;;;;;;28.09;56.16;97918.56;6180933;28;20228;-52
2023/08/23 12:49:38;;;;;;;5.15;4.65;;;;;;;27.99;56.42;97911.63;6179736;28;20225;-52
2023/08/23 12:55:52;;;;;;;5.05;4.65;;;;;;;28.07;56.71;97909.88;6170831;28;20259;-50
2023/08/23 12:58:55;;;;;;;7.57;4.50;;;;;;;28.34;56.76;97918.44;6167851;28;20230;-49
2023/08/23 13:01:58;;;;;;;5.15;4.65;;;;;;;28.38;56.83;97916.59;6151334;28;20234;-49
2023/08/23 13:05:01;;;;;;;6.30;4.93;;;;;;;28.33;56.18;97912.13;6172039;28;20225;-50
2023/08/23 13:08:04;;;;;;;5.57;4.85;;;;;;;28.48;56.42;97910.56;6172174;28;20584;-47
2023/08/23 13:11:06;;;;;;;5.40;4.25;;;;;;;28.34;56.79;97900.03;6173229;28;20602;-51
2023/08/23 13:14:09;;;;;;;5.70;5.10;;;;;;;28.47;56.02;97914.44;6172641;28;20672;-54
2023/08/23 13:17:11;;;;;;;5.45;4.72;;;;;;;28.61;55.22;97914.78;6179524;28;20241;-53
2023/08/23 13:20:14;;;;;;;8.05;4.88;;;;;;;28.60;54.46;97907.72;6174166;28;20711;-52
2023/08/23 13:23:16;;;;;;;4.90;4.40;;;;;;;28.41;55.12;97910.38;6171692;28;20597;-52
2023/08/23 13:26:19;;;;;;;6.60;4.43;;;;;;;28.50;53.96;97920.00;6173396;28;20360;-53
2023/08/23 13:29:21;;;;;;;4.35;3.95;;;;;;;28.36;55.25;97913.38;6172197;28;20712;-52
2023/08/23 13:32:24;;;;;;;8.70;4.68;;;;;;;28.37;54.94;97915.75;6176370;28;20264;-50
2023/08/23 13:35:29;;;;;;;4.95;4.28;;;;;;;28.27;54.75;97906.09;6165385;28;20381;-56
2023/08/23 13:38:32;;;;;;;5.07;4.28;;;;;;;28.14;56.00;97892.84;6179003;28;20359;-56
2023/08/23 13:41:36;;;;;;;4.93;4.50;;;;;;;28.06;57.04;97891.84;6172495;28;20514;-55
2023/08/23 13:44:39;;;;;;;5.50;5.00;;;;;;;27.96;56.86;97886.88;6177834;28;20743;-56
2023/08/23 13:47:41;;;;;;;5.00;4.60;;;;;;;27.81;58.17;97885.72;6175395;28;20232;-56
2023/08/23 13:50:44;;;;;;;5.72;5.13;;;;;;;27.86;58.37;97896.41;6174413;28;20309;-56
2023/08/23 13:54:03;;;;;;;6.22;4.85;;;;;;;27.76;59.99;97888.72;6156955;28;20225;-54
2023/08/23 13:57:27;;;;;;;6.88;5.00;;;;;;;27.62;60.93;97877.34;6186384;22;20463;-56
2023/08/23 14:00:35;;;;;;;8.05;5.30;;;;;;;27.67;60.39;97888.03;6224487;28;20349;-58
2023/08/23 14:03:41;;;;;;;6.13;5.10;;;;;;;27.62;61.15;97869.13;6217770;28;20219;-56
2023/08/23 14:06:44;;;;;;;6.35;4.93;;;;;;;27.83;60.49;97871.66;6204181;28;20208;-56
2023/08/23 14:09:46;;;;;;;5.45;4.80;;;;;;;28.06;59.23;97867.19;6222307;28;20758;-54
2023/08/23 14:12:49;;;;;;;6.38;5.38;;;;;;;28.05;60.58;97875.78;6221502;28;20247;-56
2023/08/23 14:15:53;;;;;;;7.72;5.32;;;;;;;28.01;61.02;97870.19;6227020;22;20210;-55
2023/08/23 14:18:55;;;;;;;7.22;5.03;;;;;;;28.08;58.05;97875.88;6217506;28;20270;-55
2023/08/23 14:21:58;;;;;;;4.82;4.07;;;;;;;28.04;59.14;97880.47;6229151;28;20687;-54
2023/08/23 14:25:00;;;;;;;5.55;4.72;;;;;;;28.05;59.53;97871.09;6231482;28;20294;-56
2023/08/23 14:28:02;;;;;;;8.73;4.60;;;;;;;28.19;58.48;97879.69;6224288;28;20277;-55